Time;durP1;ratioP1;P1;durP2;ratioP2;P2;SDS_P1;SDS_P2;PMS_P1;PMS_P2;Temp;Humidity;BMP_temperature;BMP_pressure;BME280_temperature;BME280_humidity;BME280_pressure;Samples;Min_cycle;Max_cycle;Signal;HPM_P1;HPM_P2
2023/07/25 08:30:26;;;;;;;6.70;2.10;;;16.50;39.40;;;;;;5132578;27;20535;-84
2023/07/25 08:32:52;;;;;;;8.23;2.00;;;17.10;32.40;;;;;;5149424;27;20645;-83
2023/07/25 08:35:17;;;;;;;5.30;2.00;;;17.10;25.40;;;;;;5148144;27;20180;-83
2023/07/25 08:37:43;;;;;;;7.90;2.27;;;17.20;24.10;;;;;;5112476;28;20167;-82
2023/07/25 08:40:10;;;;;;;7.40;1.90;;;17.10;16.00;;;;;;5112222;28;20532;-82
2023/07/25 08:42:41;;;;;;;7.80;2.50;;;17.10;22.30;;;;;;5112671;28;20162;-84
2023/07/25 08:45:08;;;;;;;8.20;2.47;;;17.00;20.00;;;;;;5112799;28;20176;-84
2023/07/25 08:47:39;;;;;;;4.73;1.97;;;17.00;17.50;;;;;;5124641;27;20169;-82
2023/07/25 08:50:14;;;;;;;8.70;2.33;;;17.00;16.20;;;;;;5133770;27;20630;-81
2023/07/25 08:52:43;;;;;;;8.97;2.30;;;17.00;11.40;;;;;;5134184;27;20171;-82
2023/07/25 08:55:08;;;;;;;4.87;2.20;;;17.00;14.80;;;;;;5134158;27;20198;-83
2023/07/25 08:57:35;;;;;;;5.77;1.97;;;16.90;10.30;;;;;;5132793;27;20162;-85
2023/07/25 09:00:01;;;;;;;9.20;2.60;;;16.90;17.70;;;;;;5132589;27;20210;-84
2023/07/25 09:02:28;;;;;;;10.40;2.60;;;17.10;19.40;;;;;;5132955;27;20168;-84
2023/07/25 09:04:55;;;;;;;4.00;1.97;;;17.20;27.20;;;;;;5132467;27;20170;-84
2023/07/25 09:07:21;;;;;;;4.40;2.10;;;17.30;11.30;;;;;;5132412;27;20175;-84
2023/07/25 09:09:47;;;;;;;13.47;3.10;;;17.20;8.30;;;;;;5132595;27;20176;-84
2023/07/25 09:12:12;;;;;;;6.33;1.80;;;17.10;1.00;;;;;;5130732;27;20246;-83
2023/07/25 09:14:39;;;;;;;10.43;2.43;;;17.20;1.00;;;;;;5112458;27;20171;-81
2023/07/25 09:17:06;;;;;;;5.47;1.80;;;17.10;1.00;;;;;;5112792;28;20179;-81
2023/07/25 09:19:32;;;;;;;5.73;2.00;;;17.20;1.00;;;;;;5113302;28;20213;-84
2023/07/25 09:21:58;;;;;;;7.33;2.20;;;17.20;1.00;;;;;;5111310;28;20687;-84
2023/07/25 09:24:34;;;;;;;7.33;1.87;;;17.30;1.00;;;;;;5112086;28;20175;-86
2023/07/25 09:27:00;;;;;;;5.83;1.93;;;17.20;1.00;;;;;;5130674;27;20165;-84
2023/07/25 09:29:28;;;;;;;7.70;2.20;;;17.20;1.00;;;;;;5108473;28;20189;-84
2023/07/25 09:31:55;;;;;;;6.10;2.20;;;17.20;1.00;;;;;;5098301;28;20179;-82
2023/07/25 09:34:23;;;;;;;4.83;2.03;;;17.30;1.00;;;;;;5098391;28;20182;-84
2023/07/25 09:36:49;;;;;;;4.57;1.87;;;17.40;1.00;;;;;;5115814;28;20643;-84
2023/07/25 09:39:16;;;;;;;4.90;1.80;;;17.40;1.00;;;;;;5097589;28;20242;-84
2023/07/25 09:41:43;;;;;;;8.23;2.47;;;17.50;1.00;;;;;;5097679;28;20511;-83
2023/07/25 09:44:09;;;;;;;6.37;2.10;;;17.50;1.00;;;;;;5097907;28;20168;-83
2023/07/25 09:46:35;;;;;;;6.00;2.27;;;17.50;1.00;;;;;;5109381;28;20196;-83
2023/07/25 09:49:00;;;;;;;7.77;2.07;;;17.50;1.00;;;;;;5120821;28;20163;-84
2023/07/25 09:51:28;;;;;;;7.50;2.37;;;17.50;1.00;;;;;;5120127;28;20209;-83
2023/07/25 09:53:54;;;;;;;10.83;2.80;;;17.40;1.00;;;;;;5097750;28;20172;-84
2023/07/25 09:56:29;;;;;;;6.90;2.27;;;17.40;1.00;;;;;;5097557;28;20167;-83
2023/07/25 09:58:55;;;;;;;7.00;2.50;;;17.40;1.00;;;;;;5096927;28;20296;-84
2023/07/25 10:01:21;;;;;;;10.77;2.03;;;17.40;1.00;;;;;;5097432;28;20274;-84
2023/07/25 10:03:47;;;;;;;6.47;2.20;;;17.20;1.00;;;;;;5097154;28;20225;-85
2023/07/25 10:06:16;;;;;;;6.60;2.23;;;17.20;1.00;;;;;;5096913;28;20202;-84
2023/07/25 10:08:45;;;;;;;8.40;2.70;;;17.30;1.00;;;;;;5115064;28;20619;-84
2023/07/25 10:11:14;;;;;;;6.23;2.27;;;17.30;1.00;;;;;;5097111;28;20513;-82
2023/07/25 10:13:43;;;;;;;6.27;2.50;;;17.30;1.00;;;;;;5097309;28;20749;-85
2023/07/25 10:16:14;;;;;;;5.83;2.17;;;17.40;1.00;;;;;;5097003;28;20269;-85
2023/07/25 10:18:40;;;;;;;7.80;2.37;;;17.30;1.00;;;;;;5096619;28;20568;-84
2023/07/25 10:21:11;;;;;;;6.23;2.10;;;17.40;1.00;;;;;;5096602;28;20626;-84
2023/07/25 10:23:51;;;;;;;7.40;2.43;;;17.40;1.00;;;;;;5097464;28;20181;-84
2023/07/25 10:26:18;;;;;;;7.03;1.87;;;17.60;1.00;;;;;;5096833;28;20184;-84
2023/07/25 10:28:44;;;;;;;7.27;2.13;;;17.50;1.00;;;;;;5096934;28;20186;-85
2023/07/25 10:31:27;;;;;;;6.47;2.47;;;17.70;1.00;;;;;;5096769;28;20265;-85
2023/07/25 10:33:58;;;;;;;6.93;2.57;;;17.80;1.00;;;;;;5096310;28;20213;-85
2023/07/25 10:36:28;;;;;;;7.97;2.23;;;17.80;1.00;;;;;;5098318;28;20175;-85
2023/07/25 10:39:06;;;;;;;8.00;2.70;;;17.90;1.00;;;;;;5100877;28;20253;-84
2023/07/25 10:41:31;;;;;;;8.63;2.90;;;17.90;1.00;;;;;;5097315;28;20172;-83
2023/07/25 10:43:59;;;;;;;4.73;1.93;;;18.00;1.00;;;;;;5096819;28;20191;-83
2023/07/25 10:46:30;;;;;;;4.93;2.27;;;17.80;1.00;;;;;;5098129;28;20176;-84
2023/07/25 10:49:00;;;;;;;7.87;2.30;;;17.80;1.00;;;;;;5096381;28;20272;-83
2023/07/25 10:51:52;;;;;;;6.00;2.13;;;17.40;99.90;;;;;;5097135;28;20175;-83
2023/07/25 10:54:22;;;;;;;9.83;3.00;;;17.00;99.90;;;;;;5096464;28;20203;-85
2023/07/25 10:57:14;;;;;;;6.60;2.80;;;16.70;99.90;;;;;;5095989;28;20171;-83
2023/07/25 11:00:04;;;;;;;8.03;2.73;;;16.60;99.90;;;;;;5097248;28;20256;-82
2023/07/25 11:02:42;;;;;;;6.63;2.80;;;16.30;99.90;;;;;;5099760;28;20464;-84
2023/07/25 11:05:16;;;;;;;11.00;3.33;;;16.20;99.90;;;;;;5097792;28;20261;-85
2023/07/25 11:07:53;;;;;;;7.40;2.60;;;16.30;99.90;;;;;;5097750;28;20627;-83
2023/07/25 11:10:24;;;;;;;9.60;2.73;;;16.30;99.90;;;;;;5117252;28;20158;-84
2023/07/25 11:13:01;;;;;;;10.00;2.87;;;16.50;99.90;;;;;;5104589;28;20199;-84
2023/07/25 11:15:27;;;;;;;8.50;2.93;;;16.60;99.90;;;;;;5106319;28;20163;-83
2023/07/25 11:17:52;;;;;;;5.73;2.67;;;16.70;99.90;;;;;;5099803;28;20203;-84
2023/07/25 11:20:22;;;;;;;9.00;2.83;;;16.70;99.90;;;;;;5097482;28;20188;-83
2023/07/25 11:22:53;;;;;;;9.63;2.57;;;16.90;99.90;;;;;;5097216;28;20188;-83
2023/07/25 11:25:19;;;;;;;7.93;2.60;;;17.20;99.90;;;;;;5096597;28;20171;-84
2023/07/25 11:27:46;;;;;;;7.70;2.63;;;17.30;99.90;;;;;;5096426;28;20697;-83
2023/07/25 11:30:19;;;;;;;6.40;2.40;;;17.30;99.90;;;;;;5097085;28;20279;-83
2023/07/25 11:32:52;;;;;;;6.50;2.37;;;17.30;99.90;;;;;;5096562;28;20216;-84
2023/07/25 11:35:18;;;;;;;6.07;2.67;;;17.40;99.90;;;;;;5095472;28;20169;-83
2023/07/25 11:37:44;;;;;;;9.27;2.63;;;17.50;99.90;;;;;;5095968;28;20174;-83
2023/07/25 11:40:11;;;;;;;4.60;1.90;;;17.60;99.90;;;;;;5095510;28;20648;-84
2023/07/25 11:42:39;;;;;;;8.70;2.10;;;17.80;99.90;;;;;;5096218;28;20167;-85
2023/07/25 11:45:06;;;;;;;5.20;1.83;;;18.00;99.90;;;;;;5095148;28;20634;-83
2023/07/25 11:47:32;;;;;;;7.27;2.10;;;18.30;99.90;;;;;;5094536;28;20264;-85
2023/07/25 11:49:58;;;;;;;6.87;1.63;;;18.50;99.90;;;;;;5074139;28;20193;-84
2023/07/25 11:53:09;;;;;;;5.47;2.00;;;18.80;99.90;;;;;;5075903;28;20178;-84
2023/07/25 11:55:35;;;;;;;5.70;2.00;;;19.00;99.90;;;;;;5075207;28;20173;-84
2023/07/25 11:58:02;;;;;;;8.37;1.90;;;18.70;99.90;;;;;;5074174;28;20579;-86
2023/07/25 12:00:41;;;;;;;6.60;2.00;;;18.50;99.90;;;;;;5065450;28;20186;-84
2023/07/25 12:03:19;;;;;;;4.83;2.40;;;18.40;99.90;;;;;;5103519;28;20191;-83
2023/07/25 12:05:55;;;;;;;6.73;2.43;;;18.10;99.90;;;;;;5091920;28;20187;-82
2023/07/25 12:08:37;;;;;;;2.53;1.63;;;18.10;99.90;;;;;;5070543;28;20631;-83
2023/07/25 12:11:11;;;;;;;6.20;2.43;;;18.20;99.90;;;;;;5072961;28;20267;-82
2023/07/25 12:13:52;;;;;;;5.17;2.37;;;18.20;99.90;;;;;;5055459;28;20230;-83
2023/07/25 12:16:28;;;;;;;8.43;2.43;;;18.20;99.90;;;;;;5054780;28;20637;-85
2023/07/25 12:18:56;;;;;;;6.23;2.70;;;18.30;99.90;;;;;;5071959;28;20298;-83
2023/07/25 12:21:26;;;;;;;6.23;2.20;;;18.50;99.90;;;;;;5054510;28;20189;-80
2023/07/25 12:23:53;;;;;;;8.03;2.80;;;18.60;99.90;;;;;;5073440;28;20205;-81
2023/07/25 12:26:21;;;;;;;7.40;2.60;;;18.60;99.90;;;;;;5074922;28;20164;-81
2023/07/25 12:28:51;;;;;;;5.77;2.20;;;18.70;99.90;;;;;;5058434;28;20191;-83
2023/07/25 12:31:17;;;;;;;5.83;1.97;;;18.70;99.90;;;;;;5058285;28;20172;-81
2023/07/25 12:33:44;;;;;;;5.77;1.83;;;18.80;99.90;;;;;;5058152;28;20167;-83
2023/07/25 12:36:11;;;;;;;5.90;2.00;;;18.80;99.90;;;;;;5059064;28;20170;-82
2023/07/25 12:38:38;;;;;;;6.30;2.10;;;18.90;99.90;;;;;;5059931;28;20214;-82
2023/07/25 12:41:03;;;;;;;5.27;2.10;;;19.00;99.90;;;;;;5054983;28;20267;-83
2023/07/25 12:43:32;;;;;;;8.70;2.10;;;19.20;99.90;;;;;;5056553;28;20381;-85
2023/07/25 12:45:57;;;;;;;4.47;2.23;;;19.20;99.90;;;;;;5071074;28;20257;-85
2023/07/25 12:48:23;;;;;;;4.17;1.80;;;19.10;99.90;;;;;;5072237;28;20303;-84
2023/07/25 12:50:50;;;;;;;6.27;2.57;;;19.20;99.90;;;;;;5054193;28;20666;-84
2023/07/25 12:53:16;;;;;;;6.90;2.40;;;19.20;99.90;;;;;;5054247;28;20166;-84
2023/07/25 12:55:41;;;;;;;3.77;1.70;;;19.50;99.90;;;;;;5054294;28;20182;-83
2023/07/25 12:58:07;;;;;;;5.43;1.93;;;19.40;99.90;;;;;;5053939;28;20313;-83
2023/07/25 13:00:33;;;;;;;6.40;1.40;;;19.30;99.90;;;;;;5083083;28;20187;-84
2023/07/25 13:02:58;;;;;;;5.13;2.03;;;19.10;99.90;;;;;;5054285;28;20264;-83
2023/07/25 13:05:26;;;;;;;5.53;1.80;;;19.30;99.90;;;;;;5055465;28;20652;-84
2023/07/25 13:07:53;;;;;;;5.43;1.60;;;19.40;99.90;;;;;;5057642;28;20185;-85
2023/07/25 13:10:19;;;;;;;2.67;1.40;;;19.50;99.90;;;;;;5057617;28;20176;-84
2023/07/25 13:12:45;;;;;;;4.53;1.37;;;19.60;99.90;;;;;;5058223;28;20210;-83
2023/07/25 13:15:11;;;;;;;5.67;1.10;;;19.70;99.90;;;;;;5057579;28;20194;-83
2023/07/25 13:17:36;;;;;;;4.37;0.80;;;19.70;99.90;;;;;;5058365;28;20183;-84
2023/07/25 13:20:06;;;;;;;3.03;1.10;;;19.70;99.90;;;;;;5057469;28;20669;-83
2023/07/25 13:22:33;;;;;;;5.17;0.97;;;19.80;99.90;;;;;;5090984;28;20619;-83
2023/07/25 13:24:58;;;;;;;5.87;1.13;;;19.70;99.90;;;;;;5057449;28;20230;-84
2023/07/25 13:27:25;;;;;;;3.67;1.10;;;19.60;99.90;;;;;;5075082;28;20532;-84
2023/07/25 13:29:51;;;;;;;2.27;0.93;;;19.40;99.90;;;;;;5057414;28;20268;-84
2023/07/25 13:32:17;;;;;;;2.13;0.90;;;19.30;99.90;;;;;;5057594;28;20222;-84
2023/07/25 13:34:43;;;;;;;3.27;0.97;;;19.40;99.90;;;;;;5058065;28;20172;-84
2023/07/25 13:37:08;;;;;;;3.03;1.00;;;19.40;99.90;;;;;;5057264;28;20180;-83
2023/07/25 13:39:34;;;;;;;2.43;0.83;;;19.50;99.90;;;;;;5057147;28;20216;-84
2023/07/25 13:42:03;;;;;;;5.03;0.87;;;19.60;99.90;;;;;;5057223;28;20805;-84
2023/07/25 13:44:29;;;;;;;3.70;1.00;;;19.40;99.90;;;;;;5057035;28;20186;-83
2023/07/25 13:46:54;;;;;;;4.47;1.13;;;19.40;99.90;;;;;;5057289;28;20177;-86
2023/07/25 13:49:20;;;;;;;5.60;0.90;;;19.50;99.90;;;;;;5057154;28;20176;-85
2023/07/25 13:51:46;;;;;;;3.43;0.90;;;19.40;99.90;;;;;;5059010;28;20181;-84
2023/07/25 13:54:13;;;;;;;2.50;1.00;;;19.60;99.90;;;;;;5057242;28;20181;-85
2023/07/25 13:56:39;;;;;;;2.83;0.93;;;19.60;99.90;;;;;;5056922;28;20264;-83
2023/07/25 13:59:04;;;;;;;1.80;0.90;;;19.60;99.90;;;;;;5056784;28;20294;-84
2023/07/25 14:01:30;;;;;;;1.83;0.80;;;19.70;99.90;;;;;;5075016;28;20169;-86
2023/07/25 14:03:57;;;;;;;3.07;0.97;;;19.90;99.90;;;;;;5057132;28;20635;-83
2023/07/25 14:06:22;;;;;;;2.63;0.80;;;19.90;99.90;;;;;;5056889;28;20290;-83
2023/07/25 14:08:48;;;;;;;1.67;0.60;;;19.70;99.90;;;;;;5057366;28;20292;-85
2023/07/25 14:11:13;;;;;;;2.27;0.80;;;19.60;99.90;;;;;;5056991;28;20177;-84
2023/07/25 14:13:39;;;;;;;2.60;0.90;;;19.70;99.90;;;;;;5056597;28;20600;-83
2023/07/25 14:16:05;;;;;;;3.63;0.90;;;19.90;99.90;;;;;;5056779;28;20176;-83
2023/07/25 14:18:31;;;;;;;3.97;1.10;;;20.00;99.90;;;;;;5068285;28;20207;-84
2023/07/25 14:20:59;;;;;;;2.50;0.70;;;20.00;99.90;;;;;;5078983;28;20195;-84
2023/07/25 14:23:25;;;;;;;4.17;1.30;;;20.10;99.90;;;;;;5079260;28;20204;-84
2023/07/25 14:25:51;;;;;;;2.93;0.63;;;20.10;99.90;;;;;;5058989;28;20172;-83
2023/07/25 14:28:17;;;;;;;2.13;1.00;;;20.20;99.90;;;;;;5056875;28;20200;-84
2023/07/25 14:30:43;;;;;;;1.30;0.70;;;20.40;99.90;;;;;;5056416;28;20183;-84
2023/07/25 14:33:09;;;;;;;4.00;1.23;;;20.50;99.90;;;;;;5056311;28;20189;-84
2023/07/25 14:35:35;;;;;;;3.93;1.00;;;20.40;99.90;;;;;;5056826;28;20313;-85
2023/07/25 14:38:00;;;;;;;2.77;0.70;;;20.60;99.90;;;;;;5056218;28;20294;-84
2023/07/25 14:40:26;;;;;;;2.77;0.80;;;20.40;99.90;;;;;;5072463;28;20174;-84
2023/07/25 14:42:52;;;;;;;1.90;0.70;;;20.20;99.90;;;;;;5055928;28;20168;-84
2023/07/25 14:45:18;;;;;;;2.50;0.80;;;20.30;99.90;;;;;;5056034;28;20209;-84
2023/07/25 14:47:43;;;;;;;2.20;0.70;;;20.30;99.90;;;;;;5056205;28;20265;-85
2023/07/25 14:50:09;;;;;;;2.40;0.80;;;20.10;99.90;;;;;;5056270;28;20180;-85
2023/07/25 14:52:35;;;;;;;1.07;0.50;;;20.10;99.90;;;;;;5074082;28;20243;-84
2023/07/25 14:55:00;;;;;;;3.13;0.80;;;20.00;99.90;;;;;;5055658;28;20611;-84
2023/07/25 14:57:26;;;;;;;5.90;0.80;;;19.80;99.90;;;;;;5055586;28;20258;-84
2023/07/25 14:59:52;;;;;;;2.87;0.70;;;19.90;99.90;;;;;;5055917;28;20244;-87
2023/07/25 15:02:17;;;;;;;1.80;0.60;;;20.10;99.90;;;;;;5056705;28;20629;-84
2023/07/25 15:04:43;;;;;;;2.17;0.63;;;20.20;99.90;;;;;;5056171;28;20628;-85
2023/07/25 15:07:10;;;;;;;1.13;0.50;;;20.40;99.90;;;;;;5056330;28;20173;-85
2023/07/25 15:09:36;;;;;;;3.67;1.00;;;20.50;99.90;;;;;;5055694;28;20215;-84
2023/07/25 15:12:02;;;;;;;2.93;0.73;;;20.50;99.90;;;;;;5074072;28;20573;-85
2023/07/25 15:14:28;;;;;;;1.00;0.67;;;20.40;99.90;;;;;;5090818;28;20650;-84
2023/07/25 15:16:55;;;;;;;1.83;0.60;;;20.50;99.90;;;;;;5075782;28;20217;-85
2023/07/25 15:19:21;;;;;;;2.83;0.80;;;20.60;99.90;;;;;;5075002;28;20277;-84
2023/07/25 15:21:47;;;;;;;2.90;1.00;;;20.60;99.90;;;;;;5075198;28;20180;-84
2023/07/25 15:24:12;;;;;;;3.43;0.90;;;20.90;99.90;;;;;;5075145;28;20639;-84
2023/07/25 15:26:38;;;;;;;3.13;0.90;;;21.00;99.90;;;;;;5093711;28;20170;-85
2023/07/25 15:29:04;;;;;;;1.53;0.70;;;20.90;99.90;;;;;;5074800;28;20184;-86
2023/07/25 15:31:30;;;;;;;3.27;0.60;;;20.60;99.90;;;;;;5076490;28;20170;-84
2023/07/25 15:33:59;;;;;;;3.10;0.80;;;20.50;99.90;;;;;;5077616;28;20213;-83
2023/07/25 15:36:26;;;;;;;3.33;0.83;;;20.40;99.90;;;;;;5077697;28;20236;-85
2023/07/25 15:38:54;;;;;;;2.20;1.00;;;20.50;99.90;;;;;;5096665;28;20619;-84
2023/07/25 15:41:20;;;;;;;1.60;1.00;;;20.40;99.90;;;;;;5077509;28;20632;-85
2023/07/25 15:43:46;;;;;;;2.13;0.70;;;20.40;99.90;;;;;;5075068;28;20180;-85
2023/07/25 15:46:11;;;;;;;2.60;0.70;;;20.40;99.90;;;;;;5075218;28;20702;-84
2023/07/25 15:48:40;;;;;;;2.60;0.90;;;20.50;99.90;;;;;;5074970;28;20164;-84
2023/07/25 15:51:08;;;;;;;5.17;1.00;;;20.70;99.90;;;;;;5075427;28;20182;-84
2023/07/25 15:53:34;;;;;;;0.73;0.50;;;20.60;99.90;;;;;;5074493;28;20175;-85
2023/07/25 15:56:00;;;;;;;0.83;0.57;;;20.40;99.90;;;;;;5074894;28;20175;-83
2023/07/25 15:58:26;;;;;;;3.03;0.70;;;20.20;99.90;;;;;;5078877;28;20280;-83
2023/07/25 16:00:51;;;;;;;1.97;0.50;;;20.20;99.90;;;;;;5075103;28;20205;-84
2023/07/25 16:03:17;;;;;;;3.23;0.90;;;20.40;99.90;;;;;;5093236;28;20255;-83
2023/07/25 16:05:45;;;;;;;2.53;0.97;;;20.50;99.90;;;;;;5074969;28;20175;-86
2023/07/25 16:08:13;;;;;;;1.70;0.70;;;20.50;99.90;;;;;;5074625;28;20179;-84
2023/07/25 16:10:38;;;;;;;1.83;0.73;;;20.60;99.90;;;;;;5074919;28;20211;-85
2023/07/25 16:13:04;;;;;;;3.10;0.80;;;20.30;99.90;;;;;;5093568;28;20202;-84
2023/07/25 16:15:33;;;;;;;2.93;0.90;;;20.20;99.90;;;;;;5076161;28;20175;-85
2023/07/25 16:17:59;;;;;;;2.60;0.80;;;20.30;99.90;;;;;;5074767;28;20171;-85
2023/07/25 16:20:34;;;;;;;2.13;0.60;;;20.30;99.90;;;;;;5074486;28;20175;-85
2023/07/25 16:22:59;;;;;;;2.20;0.80;;;20.60;99.90;;;;;;5092567;28;20516;-86
2023/07/25 16:25:26;;;;;;;1.90;0.83;;;20.80;99.90;;;;;;5074500;28;20578;-85
2023/07/25 16:27:52;;;;;;;1.77;1.00;;;20.60;99.90;;;;;;5076001;28;20258;-84
2023/07/25 16:30:18;;;;;;;2.83;1.63;;;20.60;99.90;;;;;;5074717;28;20772;-85
2023/07/25 16:32:44;;;;;;;2.10;0.80;;;20.90;99.90;;;;;;5092901;28;20188;-85
2023/07/25 16:35:11;;;;;;;1.93;0.70;;;21.00;99.90;;;;;;5090529;28;20172;-83
2023/07/25 16:37:45;;;;;;;1.37;0.80;;;20.70;99.90;;;;;;5095794;28;20215;-85
2023/07/25 16:40:11;;;;;;;1.93;1.00;;;20.50;99.90;;;;;;5093037;28;20692;-85
2023/07/25 16:42:40;;;;;;;3.50;1.10;;;20.70;99.90;;;;;;5080694;28;20171;-83
2023/07/25 16:45:08;;;;;;;3.33;1.53;;;20.90;99.90;;;;;;5079445;28;20196;-83
2023/07/25 16:47:34;;;;;;;2.53;1.10;;;20.90;99.90;;;;;;5078574;28;20175;-85
2023/07/25 16:50:00;;;;;;;3.03;1.07;;;20.70;99.90;;;;;;5078249;28;20186;-85
2023/07/25 16:52:25;;;;;;;1.10;0.63;;;20.70;99.90;;;;;;5078227;28;20181;-87
2023/07/25 16:54:51;;;;;;;4.83;1.10;;;20.60;99.90;;;;;;5078323;28;20217;-84
2023/07/25 16:57:23;;;;;;;2.37;0.90;;;20.80;99.90;;;;;;5078777;28;20183;-86
2023/07/25 16:59:50;;;;;;;4.30;0.90;;;20.70;99.90;;;;;;5078531;28;20218;-85
2023/07/25 17:02:19;;;;;;;3.77;1.07;;;20.70;99.90;;;;;;5099712;28;20179;-85
2023/07/25 17:04:45;;;;;;;3.23;1.30;;;21.00;99.90;;;;;;5078456;28;20236;-84
2023/07/25 17:07:19;;;;;;;2.40;1.27;;;21.10;99.90;;;;;;5078333;28;20182;-87
2023/07/25 17:09:45;;;;;;;4.27;1.30;;;21.00;99.90;;;;;;5082957;28;20179;-87
2023/07/25 17:12:10;;;;;;;3.77;1.20;;;20.80;99.90;;;;;;5084489;28;20172;-85
2023/07/25 17:14:42;;;;;;;4.17;1.13;;;20.80;99.90;;;;;;5078946;28;20176;-83
2023/07/25 17:17:08;;;;;;;3.27;1.10;;;20.90;99.90;;;;;;5079123;28;20225;-85
2023/07/25 17:19:34;;;;;;;3.17;1.23;;;20.80;99.90;;;;;;5077766;28;20240;-84
2023/07/25 17:21:59;;;;;;;3.47;1.30;;;20.90;99.90;;;;;;5078911;28;20329;-85
2023/07/25 17:24:28;;;;;;;2.53;1.03;;;20.90;99.90;;;;;;5079268;28;20185;-84
2023/07/25 17:26:53;;;;;;;2.53;1.03;;;20.70;99.90;;;;;;5079330;28;20232;-84
2023/07/25 17:29:19;;;;;;;4.13;1.60;;;20.90;99.90;;;;;;5078780;28;20690;-84
2023/07/25 17:31:45;;;;;;;3.40;1.20;;;21.00;99.90;;;;;;5098063;28;20526;-86
2023/07/25 17:34:10;;;;;;;2.57;1.60;;;21.00;99.90;;;;;;5079061;28;20244;-85
2023/07/25 17:36:36;;;;;;;1.90;1.00;;;21.30;99.90;;;;;;5096600;28;20173;-84
2023/07/25 17:39:03;;;;;;;3.00;1.30;;;21.60;99.90;;;;;;5098165;28;20224;-84
2023/07/25 17:41:29;;;;;;;3.60;1.13;;;21.80;99.90;;;;;;5079403;28;20174;-86
2023/07/25 17:43:55;;;;;;;3.03;1.30;;;21.90;99.90;;;;;;5079942;28;20235;-84
2023/07/25 17:46:20;;;;;;;4.80;1.50;;;22.10;99.90;;;;;;5078706;28;20206;-85
2023/07/25 17:48:46;;;;;;;4.43;1.30;;;22.40;99.90;;;;;;5078447;28;20669;-84
2023/07/25 17:51:12;;;;;;;2.53;1.23;;;21.80;99.90;;;;;;5078264;28;20175;-86
2023/07/25 17:53:38;;;;;;;2.07;1.07;;;21.50;99.90;;;;;;5078431;28;20475;-85
2023/07/25 17:56:06;;;;;;;2.67;1.30;;;21.40;99.90;;;;;;5079678;28;20169;-85
2023/07/25 17:58:32;;;;;;;2.30;1.20;;;21.20;99.90;;;;;;5078578;28;20213;-84
2023/07/25 18:00:58;;;;;;;4.03;1.30;;;21.00;99.90;;;;;;5095508;28;20590;-85
2023/07/25 18:03:23;;;;;;;2.83;1.23;;;20.70;99.90;;;;;;5078499;28;20185;-85
2023/07/25 18:05:49;;;;;;;2.20;1.10;;;20.70;99.90;;;;;;5078927;28;20227;-85
2023/07/25 18:08:14;;;;;;;3.03;1.30;;;20.50;99.90;;;;;;5078312;28;20266;-84
2023/07/25 18:10:40;;;;;;;5.17;1.90;;;20.30;99.90;;;;;;5079071;28;20263;-85
2023/07/25 18:13:06;;;;;;;2.47;1.10;;;20.10;99.90;;;;;;5077954;28;20192;-84
2023/07/25 18:15:32;;;;;;;5.17;1.27;;;19.90;99.90;;;;;;5078220;28;20186;-85
2023/07/25 18:17:59;;;;;;;2.57;1.43;;;19.70;99.90;;;;;;5077952;28;20596;-85
2023/07/25 18:20:25;;;;;;;5.03;1.63;;;19.50;99.90;;;;;;5096617;28;20651;-84
2023/07/25 18:22:53;;;;;;;6.00;1.70;;;19.60;99.90;;;;;;5098687;28;20194;-84
2023/07/25 18:25:19;;;;;;;7.43;1.97;;;19.70;99.90;;;;;;5081925;28;20180;-85
2023/07/25 18:27:44;;;;;;;3.50;1.40;;;19.50;99.90;;;;;;5080001;28;20622;-86
2023/07/25 18:30:10;;;;;;;3.87;1.70;;;19.50;99.90;;;;;;5078605;28;20183;-85
2023/07/25 18:32:36;;;;;;;5.37;1.93;;;19.60;99.90;;;;;;5077552;28;20184;-84
2023/07/25 18:35:02;;;;;;;6.33;2.07;;;19.50;99.90;;;;;;5079412;28;20528;-84
2023/07/25 18:37:28;;;;;;;5.50;2.00;;;19.60;99.90;;;;;;5096698;28;20172;-83
2023/07/25 18:39:54;;;;;;;3.33;1.70;;;19.70;99.90;;;;;;5078206;28;20212;-85
2023/07/25 18:42:20;;;;;;;5.70;1.50;;;19.70;99.90;;;;;;5077281;28;20204;-85
2023/07/25 18:44:45;;;;;;;4.37;1.30;;;19.70;99.90;;;;;;5076940;28;20244;-84
2023/07/25 18:47:11;;;;;;;3.87;1.33;;;19.60;99.90;;;;;;5076513;28;20180;-83
2023/07/25 18:49:36;;;;;;;2.47;1.27;;;19.40;99.90;;;;;;5076407;28;20176;-83
2023/07/25 18:52:02;;;;;;;3.43;1.30;;;19.20;99.90;;;;;;5100946;28;20196;-84
2023/07/25 18:54:28;;;;;;;4.63;1.33;;;19.20;99.90;;;;;;5100981;28;20193;-81
2023/07/25 18:56:55;;;;;;;3.57;1.40;;;19.30;99.90;;;;;;5099373;28;20175;-83
2023/07/25 18:59:21;;;;;;;2.30;1.20;;;19.10;99.90;;;;;;5082963;28;20665;-83
2023/07/25 19:01:49;;;;;;;2.90;1.00;;;18.90;99.90;;;;;;5078423;28;20220;-84
2023/07/25 19:04:14;;;;;;;3.17;1.23;;;18.70;99.90;;;;;;5076053;28;20225;-84
2023/07/25 19:06:43;;;;;;;2.40;1.10;;;18.50;99.90;;;;;;5076185;28;20182;-84
2023/07/25 19:09:09;;;;;;;6.23;1.50;;;18.40;99.90;;;;;;5076336;28;20179;-85
2023/07/25 19:11:35;;;;;;;2.37;1.20;;;18.30;99.90;;;;;;5094859;28;20166;-84
2023/07/25 19:14:00;;;;;;;2.87;1.13;;;18.30;99.90;;;;;;5075937;28;20298;-83
2023/07/25 19:16:26;;;;;;;3.93;1.30;;;18.30;99.90;;;;;;5094802;28;20197;-83
2023/07/25 19:18:52;;;;;;;3.50;1.40;;;18.40;99.90;;;;;;5077277;28;20223;-82
2023/07/25 19:21:18;;;;;;;5.00;1.43;;;18.40;99.90;;;;;;5076784;28;20692;-85
2023/07/25 19:23:50;;;;;;;2.23;1.20;;;18.40;99.90;;;;;;5076374;28;20185;-84
2023/07/25 19:26:19;;;;;;;3.57;1.43;;;18.40;99.90;;;;;;5076090;28;20185;-84
2023/07/25 19:28:44;;;;;;;2.63;1.20;;;18.50;99.90;;;;;;5075564;28;20199;-85
2023/07/25 19:31:10;;;;;;;3.13;1.40;;;18.50;99.90;;;;;;5075010;28;20187;-84
2023/07/25 19:33:35;;;;;;;3.70;1.50;;;18.60;99.90;;;;;;5075523;28;20261;-82
2023/07/25 19:36:01;;;;;;;3.90;1.60;;;18.70;99.90;;;;;;5076201;28;20189;-83
2023/07/25 19:38:28;;;;;;;4.57;1.50;;;18.50;99.90;;;;;;5094629;28;20203;-86
2023/07/25 19:41:00;;;;;;;3.50;1.30;;;18.40;99.90;;;;;;5077394;28;20175;-84
2023/07/25 19:43:25;;;;;;;2.80;1.57;;;18.50;99.90;;;;;;5075582;28;20244;-85
2023/07/25 19:45:55;;;;;;;4.13;1.67;;;18.40;99.90;;;;;;5075071;28;20174;-84
2023/07/25 19:48:21;;;;;;;3.83;1.53;;;18.40;99.90;;;;;;5075983;28;20178;-84
2023/07/25 19:50:47;;;;;;;4.27;1.90;;;18.50;99.90;;;;;;5075380;28;20182;-84
2023/07/25 19:53:15;;;;;;;4.03;1.60;;;18.60;99.90;;;;;;5075317;28;20623;-84
2023/07/25 19:55:40;;;;;;;3.10;1.67;;;18.70;99.90;;;;;;5075874;28;20610;-84
2023/07/25 19:58:06;;;;;;;6.13;1.60;;;18.80;99.90;;;;;;5075681;28;20203;-85
2023/07/25 20:00:32;;;;;;;6.00;1.90;;;18.60;99.90;;;;;;5074996;28;20252;-84
2023/07/25 20:02:58;;;;;;;4.50;1.87;;;18.60;99.90;;;;;;5075473;28;20194;-84
2023/07/25 20:05:24;;;;;;;4.07;2.20;;;18.80;99.90;;;;;;5075006;28;20222;-85
2023/07/25 20:07:50;;;;;;;3.30;1.70;;;18.90;99.90;;;;;;5074986;28;20177;-85
2023/07/25 20:10:15;;;;;;;4.53;1.80;;;18.80;99.90;;;;;;5074743;28;20541;-85
2023/07/25 20:12:41;;;;;;;3.73;1.83;;;18.80;99.90;;;;;;5075353;28;20199;-85
2023/07/25 20:15:07;;;;;;;5.23;1.80;;;18.80;99.90;;;;;;5074170;28;20214;-84
2023/07/25 20:17:33;;;;;;;3.97;1.40;;;18.80;99.90;;;;;;5075241;28;20180;-85
2023/07/25 20:19:59;;;;;;;6.13;3.77;;;18.90;99.90;;;;;;5074653;28;20215;-84
2023/07/25 20:22:27;;;;;;;6.80;4.03;;;18.90;99.90;;;;;;5075024;28;20178;-84
2023/07/25 20:24:53;;;;;;;4.13;1.70;;;18.90;99.90;;;;;;5074951;28;20292;-84
2023/07/25 20:27:19;;;;;;;4.87;2.90;;;18.90;99.90;;;;;;5074686;28;20260;-84
2023/07/25 20:29:44;;;;;;;4.40;1.77;;;18.90;99.90;;;;;;5073954;28;20228;-84
2023/07/25 20:32:10;;;;;;;4.37;2.17;;;18.90;99.90;;;;;;5074502;28;20186;-84
2023/07/25 20:34:36;;;;;;;3.83;2.30;;;18.60;99.90;;;;;;5074480;28;20171;-84
2023/07/25 20:37:02;;;;;;;4.00;2.30;;;18.50;99.90;;;;;;5074973;28;20214;-83
2023/07/25 20:39:28;;;;;;;6.00;2.43;;;18.50;99.90;;;;;;5076013;28;20299;-84
2023/07/25 20:41:54;;;;;;;4.97;2.23;;;18.60;99.90;;;;;;5075121;28;20514;-86
2023/07/25 20:44:19;;;;;;;4.37;2.33;;;18.60;99.90;;;;;;5074289;28;20260;-86
2023/07/25 20:46:45;;;;;;;3.27;1.60;;;18.50;99.90;;;;;;5074424;28;20173;-86
2023/07/25 20:49:11;;;;;;;5.10;2.07;;;18.40;99.90;;;;;;5074641;28;20615;-84
2023/07/25 20:51:36;;;;;;;2.93;1.70;;;18.30;99.90;;;;;;5074574;28;20167;-84
2023/07/25 20:54:02;;;;;;;4.30;1.50;;;18.30;99.90;;;;;;5074816;28;20172;-86
2023/07/25 20:56:28;;;;;;;3.73;1.70;;;18.30;99.90;;;;;;5074692;28;20712;-85
2023/07/25 20:58:54;;;;;;;2.23;1.60;;;18.30;99.90;;;;;;5073881;28;20563;-84
2023/07/25 21:01:20;;;;;;;2.77;1.73;;;18.30;99.90;;;;;;5074219;28;20190;-84
2023/07/25 21:03:45;;;;;;;2.63;1.67;;;18.20;99.90;;;;;;5074762;28;20258;-85
2023/07/25 21:06:11;;;;;;;2.63;1.30;;;18.10;99.90;;;;;;5092507;28;20199;-84
2023/07/25 21:08:37;;;;;;;3.13;1.50;;;18.20;99.90;;;;;;5074305;28;20168;-84
2023/07/25 21:11:07;;;;;;;3.83;1.77;;;18.20;99.90;;;;;;5083503;28;20177;-84
2023/07/25 21:13:34;;;;;;;2.77;1.50;;;18.30;99.90;;;;;;5114104;28;20175;-85
2023/07/25 21:16:00;;;;;;;4.83;1.50;;;18.10;99.90;;;;;;5098290;28;20175;-83
2023/07/25 21:18:32;;;;;;;3.77;1.63;;;18.10;99.90;;;;;;5079338;28;20203;-83